sensor_id;sensor_type;location;lat;lon;timestamp;temperature;humidity
45313;SHT31;68267;51.540;5.854;2024-01-25T00:01:35;8.6;82.8
45313;SHT31;68267;51.540;5.854;2024-01-25T00:14:55;8.5;82.9
45313;SHT31;68267;51.540;5.854;2024-01-25T00:28:14;8.3;83.2
45313;SHT31;68267;51.540;5.854;2024-01-25T00:41:34;8.0;83.9
45313;SHT31;68267;51.540;5.854;2024-01-25T00:54:54;7.9;84.4
45313;SHT31;68267;51.540;5.854;2024-01-25T01:08:13;7.6;85.0
45313;SHT31;68267;51.540;5.854;2024-01-25T01:21:33;7.5;85.5
45313;SHT31;68267;51.540;5.854;2024-01-25T01:34:52;7.3;85.7
45313;SHT31;68267;51.540;5.854;2024-01-25T01:48:12;7.1;86.5
45313;SHT31;68267;51.540;5.854;2024-01-25T02:01:32;6.8;87.2
45313;SHT31;68267;51.540;5.854;2024-01-25T02:14:52;6.7;87.7
45313;SHT31;68267;51.540;5.854;2024-01-25T02:28:14;6.5;87.9
45313;SHT31;68267;51.540;5.854;2024-01-25T02:41:33;6.1;88.7
45313;SHT31;68267;51.540;5.854;2024-01-25T02:54:53;6.0;90.0
45313;SHT31;68267;51.540;5.854;2024-01-25T03:08:13;6.1;90.2
45313;SHT31;68267;51.540;5.854;2024-01-25T03:21:32;6.0;90.9
45313;SHT31;68267;51.540;5.854;2024-01-25T03:34:52;5.9;90.8
45313;SHT31;68267;51.540;5.854;2024-01-25T03:48:12;5.8;90.9
45313;SHT31;68267;51.540;5.854;2024-01-25T04:01:31;5.7;90.8
45313;SHT31;68267;51.540;5.854;2024-01-25T04:14:51;5.6;90.9
45313;SHT31;68267;51.540;5.854;2024-01-25T04:28:11;5.6;91.1
45313;SHT31;68267;51.540;5.854;2024-01-25T04:41:33;5.5;91.2
45313;SHT31;68267;51.540;5.854;2024-01-25T04:54:52;5.3;91.6
45313;SHT31;68267;51.540;5.854;2024-01-25T05:08:12;5.1;91.8
45313;SHT31;68267;51.540;5.854;2024-01-25T05:21:34;5.1;91.6
45313;SHT31;68267;51.540;5.854;2024-01-25T05:34:54;5.1;91.3
45313;SHT31;68267;51.540;5.854;2024-01-25T05:48:13;5.2;91.3
45313;SHT31;68267;51.540;5.854;2024-01-25T06:01:33;5.1;91.6
45313;SHT31;68267;51.540;5.854;2024-01-25T06:14:53;5.0;91.6
45313;SHT31;68267;51.540;5.854;2024-01-25T06:28:12;5.0;91.2
45313;SHT31;68267;51.540;5.854;2024-01-25T06:41:32;4.8;91.1
45313;SHT31;68267;51.540;5.854;2024-01-25T06:54:52;4.6;91.6
45313;SHT31;68267;51.540;5.854;2024-01-25T07:08:11;4.6;91.6
45313;SHT31;68267;51.540;5.854;2024-01-25T07:21:31;4.7;91.9
45313;SHT31;68267;51.540;5.854;2024-01-25T07:34:51;4.5;91.1
45313;SHT31;68267;51.540;5.854;2024-01-25T07:48:10;4.5;91.9
45313;SHT31;68267;51.540;5.854;2024-01-25T08:01:30;4.5;92.1
45313;SHT31;68267;51.540;5.854;2024-01-25T08:14:50;4.5;92.6
45313;SHT31;68267;51.540;5.854;2024-01-25T08:28:09;4.6;93.3
45313;SHT31;68267;51.540;5.854;2024-01-25T08:41:29;4.6;93.7
45313;SHT31;68267;51.540;5.854;2024-01-25T08:54:49;4.9;93.5
45313;SHT31;68267;51.540;5.854;2024-01-25T09:08:08;5.3;93.3
45313;SHT31;68267;51.540;5.854;2024-01-25T09:21:28;5.2;93.2
45313;SHT31;68267;51.540;5.854;2024-01-25T09:34:48;5.2;93.4
45313;SHT31;68267;51.540;5.854;2024-01-25T09:48:07;5.5;93.5
45313;SHT31;68267;51.540;5.854;2024-01-25T10:01:27;5.6;93.5
45313;SHT31;68267;51.540;5.854;2024-01-25T10:14:47;5.6;93.5
45313;SHT31;68267;51.540;5.854;2024-01-25T10:28:06;5.8;93.6
45313;SHT31;68267;51.540;5.854;2024-01-25T10:41:26;6.0;93.5
45313;SHT31;68267;51.540;5.854;2024-01-25T10:54:46;6.3;93.4
45313;SHT31;68267;51.540;5.854;2024-01-25T11:08:05;6.5;92.9
45313;SHT31;68267;51.540;5.854;2024-01-25T11:21:25;6.9;92.4
45313;SHT31;68267;51.540;5.854;2024-01-25T11:34:45;7.2;91.5
45313;SHT31;68267;51.540;5.854;2024-01-25T11:48:04;6.9;91.6
45313;SHT31;68267;51.540;5.854;2024-01-25T12:01:24;7.1;91.4
45313;SHT31;68267;51.540;5.854;2024-01-25T12:14:43;7.2;91.6
45313;SHT31;68267;51.540;5.854;2024-01-25T12:28:03;7.4;91.3
45313;SHT31;68267;51.540;5.854;2024-01-25T12:41:23;7.4;90.5
45313;SHT31;68267;51.540;5.854;2024-01-25T12:54:43;7.6;89.5
45313;SHT31;68267;51.540;5.854;2024-01-25T13:08:02;7.8;88.5
45313;SHT31;68267;51.540;5.854;2024-01-25T13:21:22;8.1;87.4
45313;SHT31;68267;51.540;5.854;2024-01-25T13:34:41;8.0;87.6
45313;SHT31;68267;51.540;5.854;2024-01-25T13:48:01;8.1;87.5
45313;SHT31;68267;51.540;5.854;2024-01-25T14:01:21;8.2;87.6
45313;SHT31;68267;51.540;5.854;2024-01-25T14:14:40;8.3;87.1
45313;SHT31;68267;51.540;5.854;2024-01-25T14:28:03;8.4;87.1
45313;SHT31;68267;51.540;5.854;2024-01-25T14:41:22;8.3;87.7
45313;SHT31;68267;51.540;5.854;2024-01-25T14:54:42;8.3;88.3
45313;SHT31;68267;51.540;5.854;2024-01-25T15:08:02;8.3;88.5
45313;SHT31;68267;51.540;5.854;2024-01-25T15:21:21;8.4;88.8
45313;SHT31;68267;51.540;5.854;2024-01-25T15:34:41;8.4;90.1
45313;SHT31;68267;51.540;5.854;2024-01-25T15:48:01;8.4;90.8
45313;SHT31;68267;51.540;5.854;2024-01-25T16:01:20;8.3;91.8
45313;SHT31;68267;51.540;5.854;2024-01-25T16:14:40;8.2;92.9
45313;SHT31;68267;51.540;5.854;2024-01-25T16:28:00;8.3;93.2
45313;SHT31;68267;51.540;5.854;2024-01-25T16:41:22;8.4;93.8
45313;SHT31;68267;51.540;5.854;2024-01-25T16:54:44;8.5;94.0
45313;SHT31;68267;51.540;5.854;2024-01-25T17:08:03;8.6;94.2
45313;SHT31;68267;51.540;5.854;2024-01-25T17:21:23;8.7;94.2
45313;SHT31;68267;51.540;5.854;2024-01-25T17:34:43;8.8;94.5
45313;SHT31;68267;51.540;5.854;2024-01-25T17:48:02;8.9;94.4
45313;SHT31;68267;51.540;5.854;2024-01-25T18:01:22;9.0;94.5
45313;SHT31;68267;51.540;5.854;2024-01-25T18:14:42;9.1;94.6
45313;SHT31;68267;51.540;5.854;2024-01-25T18:28:02;9.2;94.5
45313;SHT31;68267;51.540;5.854;2024-01-25T18:41:21;9.3;94.4
45313;SHT31;68267;51.540;5.854;2024-01-25T18:54:41;9.4;94.6
45313;SHT31;68267;51.540;5.854;2024-01-25T19:08:03;9.4;94.8
45313;SHT31;68267;51.540;5.854;2024-01-25T19:21:23;9.5;94.7
45313;SHT31;68267;51.540;5.854;2024-01-25T19:34:42;9.5;94.7
45313;SHT31;68267;51.540;5.854;2024-01-25T19:48:02;9.5;94.8
45313;SHT31;68267;51.540;5.854;2024-01-25T20:01:22;9.6;94.6
45313;SHT31;68267;51.540;5.854;2024-01-25T20:14:41;9.6;94.6
45313;SHT31;68267;51.540;5.854;2024-01-25T20:28:01;9.7;94.5
45313;SHT31;68267;51.540;5.854;2024-01-25T20:41:21;9.8;94.4
45313;SHT31;68267;51.540;5.854;2024-01-25T20:54:40;9.8;94.6
45313;SHT31;68267;51.540;5.854;2024-01-25T21:08:00;9.8;94.5
45313;SHT31;68267;51.540;5.854;2024-01-25T21:21:20;9.9;94.5
45313;SHT31;68267;51.540;5.854;2024-01-25T21:34:39;10.0;94.9
45313;SHT31;68267;51.540;5.854;2024-01-25T21:47:59;10.0;94.5
45313;SHT31;68267;51.540;5.854;2024-01-25T22:01:19;10.1;94.6
45313;SHT31;68267;51.540;5.854;2024-01-25T22:14:38;10.2;94.3
45313;SHT31;68267;51.540;5.854;2024-01-25T22:27:58;10.3;94.1
45313;SHT31;68267;51.540;5.854;2024-01-25T22:41:18;10.3;94.1
45313;SHT31;68267;51.540;5.854;2024-01-25T22:54:37;10.3;94.3
45313;SHT31;68267;51.540;5.854;2024-01-25T23:07:57;10.3;94.4
45313;SHT31;68267;51.540;5.854;2024-01-25T23:21:17;10.4;94.3
45313;SHT31;68267;51.540;5.854;2024-01-25T23:34:36;10.3;94.8
45313;SHT31;68267;51.540;5.854;2024-01-25T23:47:56;10.4;94.5
